De Tour Village, MI

4:18 AM EDT on October 25, 2014 (GMT -0400)
Potagannissing Bay Front | Change Station
CLOSE
Current Station
Personal Weather Station
Location: Drummond Island, MI
Elevation: 587 ft
Nearby Weather Stations

Elev 587 ft 46.06 °N, 83.67 °W | Updated 3 seconds ago

Overcast
Overcast
48.6 °F
Feels Like 45 °F
N
9.0
Wind Variable Wind from WSW
Gusts 15.0 mph

Today
High -- | Low -- °F
--% Chance of Precip.
Yesterday
High -- | Low -- °F
Precip. -- in
8:06 AM 6:32 PM
New Moon, 2% visible
Pressure 29.69 in
Visibility 10.0 miles
Clouds Mostly Cloudy 2400 ft
Mostly Cloudy 3400 ft
Overcast 7000 ft
Windchill 45 °F
Dew Point 47 °F
Humidity 95%
Rainfall 0.00 in
Snow Depth Not available.
UV 0 out of 12
Pollen .60 out of 12
PM2.5 Good
Flu Activity Sporadic
METAR KDRM 250814Z AUTO 19005KT 10SM BKN024 BKN034 OVC070 09/08 A2969 RMK AO2 T00900083

More Conditions Fewer Conditions

Pressure 29.69 in
Visibility 10.0 miles
Clouds Mostly Cloudy 2400 ft
Mostly Cloudy 3400 ft
Overcast 7000 ft
Windchill 45 °F
Dew Point 47 °F
Humidity 95%
Rainfall 0.00 in
Snow Depth Not available.
UV 0 out of 12
Pollen .60 out of 12
PM2.5 Good
Flu Activity Sporadic
METAR KDRM 250814Z AUTO 19005KT 10SM BKN024 BKN034 OVC070 09/08 A2969 RMK AO2 T00900083

More Conditions Fewer Conditions

Nowcast | as of 4:00 am EDT on October 25, 2014

At 5 am...cloudy. Chance of rain showers. Temperature 49. Southwest winds 8 mph. At 7 am...cloudy. Chance of rain showers. Temperature 47. West winds 9 mph. At 9 am...mostly cloudy. Temperature 49. West winds 13 mph. At 11 am...partly cloudy. Temperature 52. West winds 17 mph.

×

10-Day Weather Forecast

Almanac

Astronomy

Oct. 25, 2014 Rise Set
Actual Time 8:06 AM EDT 6:32 PM EDT
Civil Twilight 7:36 AM EDT 7:03 PM EDT
Nautical Twilight 7:01 AM EDT 7:38 PM EDT
Astronomical Twilight 6:26 AM EDT 8:12 PM EDT
Moon 9:48 AM EDT 7:50 PM EDT
Length of Visible Light 11h 27m
Length of Day
10h 25m
Tomorrow will be 3m 1s shorter.
New Moon, 2% of the Moon is Illuminated
Today
New Moon
Oct 30
First Quarter
Nov 6
Full
Nov 14
Last Quarter
Nov 22
New

Today's Extremes

State Highs State Lows

Community

WunderPhotos

Upload Photos

1,764,791 photos uploaded!

Nearby

Air Quality

  Air Quality AQ Index Pollutant
Yesterday Good
PM2.5
Current Good
PM2.5
Saturday Good
PM2.5
Sunday Good
PM2.5
Monday Good
PM2.5

Snow Depth

Station Depth Elevation
No new snow has been reported.

Earthquake Activity

City Distance Mag. Time & Date
No recent earthquake activity has been reported nearby.
Minimum magnitude displayed is 2.5.

Coastal Water Temperatures

Place Temperature
De Tour Village, MI 50.0 °F
Rock Cut, MI 48.9 °F
Little Rapids, MI 52.0 °F
S W Pier, MI 51.1 °F
West Neebish, MI 52.0 °F

Nearby Weather Stations